sensor_id;sensor_type;location;lat;lon;timestamp;temperature;humidity
20432;DHT22;10375;49.136;10.366;2022-08-19T00:01:42;19.20;99.90
20432;DHT22;10375;49.136;10.366;2022-08-19T00:04:11;19.20;99.90
20432;DHT22;10375;49.136;10.366;2022-08-19T00:06:41;19.20;99.90
20432;DHT22;10375;49.136;10.366;2022-08-19T00:09:11;19.10;99.90
20432;DHT22;10375;49.136;10.366;2022-08-19T00:11:39;19.10;99.90
20432;DHT22;10375;49.136;10.366;2022-08-19T00:14:08;19.20;99.90
20432;DHT22;10375;49.136;10.366;2022-08-19T00:16:37;19.20;99.90
20432;DHT22;10375;49.136;10.366;2022-08-19T00:19:05;19.20;99.90
20432;DHT22;10375;49.136;10.366;2022-08-19T00:21:33;19.20;99.90
20432;DHT22;10375;49.136;10.366;2022-08-19T00:24:10;19.20;99.90
20432;DHT22;10375;49.136;10.366;2022-08-19T00:26:38;19.20;99.90
20432;DHT22;10375;49.136;10.366;2022-08-19T00:29:07;19.20;99.90
20432;DHT22;10375;49.136;10.366;2022-08-19T00:31:34;19.20;99.90
20432;DHT22;10375;49.136;10.366;2022-08-19T00:34:02;19.10;99.90
20432;DHT22;10375;49.136;10.366;2022-08-19T00:36:29;19.10;99.90
20432;DHT22;10375;49.136;10.366;2022-08-19T00:38:59;19.10;99.90
20432;DHT22;10375;49.136;10.366;2022-08-19T00:41:26;19.20;99.90
20432;DHT22;10375;49.136;10.366;2022-08-19T00:44:07;19.20;99.90
20432;DHT22;10375;49.136;10.366;2022-08-19T00:46:36;19.30;99.90
20432;DHT22;10375;49.136;10.366;2022-08-19T00:49:19;19.30;99.90
20432;DHT22;10375;49.136;10.366;2022-08-19T00:51:51;19.30;99.90
20432;DHT22;10375;49.136;10.366;2022-08-19T00:54:20;19.30;99.90
20432;DHT22;10375;49.136;10.366;2022-08-19T00:56:58;19.30;99.90
20432;DHT22;10375;49.136;10.366;2022-08-19T00:59:28;19.20;99.90
20432;DHT22;10375;49.136;10.366;2022-08-19T01:02:16;19.20;99.90
20432;DHT22;10375;49.136;10.366;2022-08-19T01:04:43;19.20;99.90
20432;DHT22;10375;49.136;10.366;2022-08-19T01:07:10;19.20;99.90
20432;DHT22;10375;49.136;10.366;2022-08-19T01:09:43;19.10;99.90
20432;DHT22;10375;49.136;10.366;2022-08-19T01:12:10;19.10;99.90
20432;DHT22;10375;49.136;10.366;2022-08-19T01:14:39;19.00;99.90
20432;DHT22;10375;49.136;10.366;2022-08-19T01:17:11;19.00;99.90
20432;DHT22;10375;49.136;10.366;2022-08-19T01:19:41;18.90;99.90
20432;DHT22;10375;49.136;10.366;2022-08-19T01:22:19;19.00;99.90
20432;DHT22;10375;49.136;10.366;2022-08-19T01:24:56;18.90;99.90
20432;DHT22;10375;49.136;10.366;2022-08-19T01:27:25;19.00;99.90
20432;DHT22;10375;49.136;10.366;2022-08-19T01:29:55;19.00;99.90
20432;DHT22;10375;49.136;10.366;2022-08-19T01:32:23;19.00;99.90
20432;DHT22;10375;49.136;10.366;2022-08-19T01:35:03;19.00;99.90
20432;DHT22;10375;49.136;10.366;2022-08-19T01:37:48;19.00;99.90
20432;DHT22;10375;49.136;10.366;2022-08-19T01:40:16;19.00;99.90
20432;DHT22;10375;49.136;10.366;2022-08-19T01:42:43;19.00;99.90
20432;DHT22;10375;49.136;10.366;2022-08-19T01:45:10;19.00;99.90
20432;DHT22;10375;49.136;10.366;2022-08-19T01:47:38;19.00;99.90
20432;DHT22;10375;49.136;10.366;2022-08-19T01:50:07;18.90;99.90
20432;DHT22;10375;49.136;10.366;2022-08-19T01:52:40;18.90;99.90
20432;DHT22;10375;49.136;10.366;2022-08-19T01:55:12;18.90;99.90
20432;DHT22;10375;49.136;10.366;2022-08-19T01:57:42;18.90;99.90
20432;DHT22;10375;49.136;10.366;2022-08-19T02:00:12;18.90;99.90
20432;DHT22;10375;49.136;10.366;2022-08-19T02:02:42;18.90;99.90
20432;DHT22;10375;49.136;10.366;2022-08-19T02:05:11;18.90;99.90
20432;DHT22;10375;49.136;10.366;2022-08-19T02:07:39;18.90;99.90
20432;DHT22;10375;49.136;10.366;2022-08-19T02:10:10;18.90;99.90
20432;DHT22;10375;49.136;10.366;2022-08-19T02:12:42;18.80;99.90
20432;DHT22;10375;49.136;10.366;2022-08-19T02:15:09;18.80;99.90
20432;DHT22;10375;49.136;10.366;2022-08-19T02:17:37;18.80;99.90
20432;DHT22;10375;49.136;10.366;2022-08-19T02:20:05;18.70;99.90
20432;DHT22;10375;49.136;10.366;2022-08-19T02:22:33;18.70;99.90
20432;DHT22;10375;49.136;10.366;2022-08-19T02:25:00;18.70;99.90
20432;DHT22;10375;49.136;10.366;2022-08-19T02:27:28;18.70;99.90
20432;DHT22;10375;49.136;10.366;2022-08-19T02:29:55;18.60;99.90
20432;DHT22;10375;49.136;10.366;2022-08-19T02:32:22;18.60;99.90
20432;DHT22;10375;49.136;10.366;2022-08-19T02:34:49;18.60;99.90
20432;DHT22;10375;49.136;10.366;2022-08-19T02:37:16;18.60;99.90
20432;DHT22;10375;49.136;10.366;2022-08-19T02:40:03;18.60;99.90
20432;DHT22;10375;49.136;10.366;2022-08-19T02:42:38;18.60;99.90
20432;DHT22;10375;49.136;10.366;2022-08-19T02:45:07;18.60;99.90
20432;DHT22;10375;49.136;10.366;2022-08-19T02:47:34;18.60;99.90
20432;DHT22;10375;49.136;10.366;2022-08-19T02:50:02;18.70;99.90
20432;DHT22;10375;49.136;10.366;2022-08-19T02:52:31;18.70;99.90
20432;DHT22;10375;49.136;10.366;2022-08-19T02:54:59;18.80;99.90
20432;DHT22;10375;49.136;10.366;2022-08-19T02:57:27;18.80;99.90
20432;DHT22;10375;49.136;10.366;2022-08-19T02:59:54;18.80;99.90
20432;DHT22;10375;49.136;10.366;2022-08-19T03:02:21;18.80;99.90
20432;DHT22;10375;49.136;10.366;2022-08-19T03:04:48;18.80;99.90
20432;DHT22;10375;49.136;10.366;2022-08-19T03:07:17;18.80;99.90
20432;DHT22;10375;49.136;10.366;2022-08-19T03:09:45;18.70;99.90
20432;DHT22;10375;49.136;10.366;2022-08-19T03:12:12;18.80;99.90
20432;DHT22;10375;49.136;10.366;2022-08-19T03:14:40;18.80;99.90
20432;DHT22;10375;49.136;10.366;2022-08-19T03:17:08;18.70;99.90
20432;DHT22;10375;49.136;10.366;2022-08-19T03:19:35;18.70;99.90
20432;DHT22;10375;49.136;10.366;2022-08-19T03:22:02;18.70;99.90
20432;DHT22;10375;49.136;10.366;2022-08-19T03:24:31;18.70;99.90
20432;DHT22;10375;49.136;10.366;2022-08-19T03:26:59;18.70;99.90
20432;DHT22;10375;49.136;10.366;2022-08-19T03:29:28;18.70;99.90
20432;DHT22;10375;49.136;10.366;2022-08-19T03:32:02;18.70;99.90
20432;DHT22;10375;49.136;10.366;2022-08-19T03:34:32;18.80;99.90
20432;DHT22;10375;49.136;10.366;2022-08-19T03:37:05;18.70;99.90
20432;DHT22;10375;49.136;10.366;2022-08-19T03:39:32;18.70;99.90
20432;DHT22;10375;49.136;10.366;2022-08-19T03:42:00;18.70;99.90
20432;DHT22;10375;49.136;10.366;2022-08-19T03:44:49;18.80;99.90
20432;DHT22;10375;49.136;10.366;2022-08-19T03:47:16;18.80;99.90
20432;DHT22;10375;49.136;10.366;2022-08-19T03:49:44;18.80;99.90
20432;DHT22;10375;49.136;10.366;2022-08-19T03:52:11;18.80;99.90
20432;DHT22;10375;49.136;10.366;2022-08-19T03:54:38;18.90;99.90
20432;DHT22;10375;49.136;10.366;2022-08-19T03:57:06;18.80;99.90
20432;DHT22;10375;49.136;10.366;2022-08-19T03:59:35;18.80;99.90
20432;DHT22;10375;49.136;10.366;2022-08-19T04:02:07;18.80;99.90
20432;DHT22;10375;49.136;10.366;2022-08-19T04:04:39;18.80;99.90
20432;DHT22;10375;49.136;10.366;2022-08-19T04:07:08;18.80;99.90
20432;DHT22;10375;49.136;10.366;2022-08-19T04:09:36;18.80;99.90
20432;DHT22;10375;49.136;10.366;2022-08-19T04:12:04;18.80;99.90
20432;DHT22;10375;49.136;10.366;2022-08-19T04:14:32;18.80;99.90
20432;DHT22;10375;49.136;10.366;2022-08-19T04:17:01;18.80;99.90
20432;DHT22;10375;49.136;10.366;2022-08-19T04:19:33;18.80;99.90
20432;DHT22;10375;49.136;10.366;2022-08-19T04:22:00;18.80;99.90
20432;DHT22;10375;49.136;10.366;2022-08-19T04:24:27;18.80;99.90
20432;DHT22;10375;49.136;10.366;2022-08-19T04:26:54;18.90;99.90
20432;DHT22;10375;49.136;10.366;2022-08-19T04:29:24;18.90;99.90
20432;DHT22;10375;49.136;10.366;2022-08-19T04:31:54;18.90;99.90
20432;DHT22;10375;49.136;10.366;2022-08-19T04:34:24;18.90;99.90
20432;DHT22;10375;49.136;10.366;2022-08-19T04:36:54;18.80;99.90
20432;DHT22;10375;49.136;10.366;2022-08-19T04:39:25;18.90;99.90
20432;DHT22;10375;49.136;10.366;2022-08-19T04:42:11;18.80;99.90
20432;DHT22;10375;49.136;10.366;2022-08-19T04:44:57;18.90;99.90
20432;DHT22;10375;49.136;10.366;2022-08-19T04:47:25;18.90;99.90
20432;DHT22;10375;49.136;10.366;2022-08-19T04:50:13;18.90;99.90
20432;DHT22;10375;49.136;10.366;2022-08-19T04:52:40;18.90;99.90
20432;DHT22;10375;49.136;10.366;2022-08-19T04:55:11;18.90;99.90
20432;DHT22;10375;49.136;10.366;2022-08-19T04:57:39;18.90;99.90
20432;DHT22;10375;49.136;10.366;2022-08-19T05:00:08;19.00;99.90
20432;DHT22;10375;49.136;10.366;2022-08-19T05:02:37;19.00;99.90
20432;DHT22;10375;49.136;10.366;2022-08-19T05:05:04;19.00;99.90
20432;DHT22;10375;49.136;10.366;2022-08-19T05:07:33;19.00;99.90
20432;DHT22;10375;49.136;10.366;2022-08-19T05:10:02;19.10;99.90
20432;DHT22;10375;49.136;10.366;2022-08-19T05:12:29;19.10;99.90
20432;DHT22;10375;49.136;10.366;2022-08-19T05:14:57;19.00;99.90
20432;DHT22;10375;49.136;10.366;2022-08-19T05:17:26;19.00;99.90
20432;DHT22;10375;49.136;10.366;2022-08-19T05:19:57;19.00;99.90
20432;DHT22;10375;49.136;10.366;2022-08-19T05:22:45;19.00;99.90
20432;DHT22;10375;49.136;10.366;2022-08-19T05:25:16;19.00;99.90
20432;DHT22;10375;49.136;10.366;2022-08-19T05:27:46;18.90;99.90
20432;DHT22;10375;49.136;10.366;2022-08-19T05:30:14;19.00;99.90
20432;DHT22;10375;49.136;10.366;2022-08-19T05:32:41;19.00;99.90
20432;DHT22;10375;49.136;10.366;2022-08-19T05:35:08;19.00;99.90
20432;DHT22;10375;49.136;10.366;2022-08-19T05:37:36;19.00;99.90
20432;DHT22;10375;49.136;10.366;2022-08-19T05:40:04;18.90;99.90
20432;DHT22;10375;49.136;10.366;2022-08-19T05:42:32;18.90;99.90
20432;DHT22;10375;49.136;10.366;2022-08-19T05:44:59;18.90;99.90
20432;DHT22;10375;49.136;10.366;2022-08-19T05:47:26;18.90;99.90
20432;DHT22;10375;49.136;10.366;2022-08-19T05:49:54;18.90;99.90
20432;DHT22;10375;49.136;10.366;2022-08-19T05:52:21;18.90;99.90
20432;DHT22;10375;49.136;10.366;2022-08-19T05:54:52;18.80;99.90
20432;DHT22;10375;49.136;10.366;2022-08-19T05:57:23;18.80;99.90
20432;DHT22;10375;49.136;10.366;2022-08-19T05:59:50;18.80;99.90
20432;DHT22;10375;49.136;10.366;2022-08-19T06:02:25;18.80;99.90
20432;DHT22;10375;49.136;10.366;2022-08-19T06:04:53;18.90;99.90
20432;DHT22;10375;49.136;10.366;2022-08-19T06:07:20;19.00;99.90
20432;DHT22;10375;49.136;10.366;2022-08-19T06:09:47;19.00;99.90
20432;DHT22;10375;49.136;10.366;2022-08-19T06:12:30;19.10;99.90
20432;DHT22;10375;49.136;10.366;2022-08-19T06:15:08;19.10;99.90
20432;DHT22;10375;49.136;10.366;2022-08-19T06:17:36;19.20;99.90
20432;DHT22;10375;49.136;10.366;2022-08-19T06:20:07;19.20;99.90
20432;DHT22;10375;49.136;10.366;2022-08-19T06:22:43;19.20;99.90
20432;DHT22;10375;49.136;10.366;2022-08-19T06:25:12;19.30;99.90
20432;DHT22;10375;49.136;10.366;2022-08-19T06:27:41;19.40;99.90
20432;DHT22;10375;49.136;10.366;2022-08-19T06:30:28;19.40;99.90
20432;DHT22;10375;49.136;10.366;2022-08-19T06:32:56;19.40;99.90
20432;DHT22;10375;49.136;10.366;2022-08-19T06:35:23;19.50;99.90
20432;DHT22;10375;49.136;10.366;2022-08-19T06:37:50;19.60;99.90
20432;DHT22;10375;49.136;10.366;2022-08-19T06:40:17;19.70;99.90
20432;DHT22;10375;49.136;10.366;2022-08-19T06:42:44;19.80;99.90
20432;DHT22;10375;49.136;10.366;2022-08-19T06:45:22;19.80;99.90
20432;DHT22;10375;49.136;10.366;2022-08-19T06:48:00;19.90;99.90
20432;DHT22;10375;49.136;10.366;2022-08-19T06:50:27;19.90;99.90
20432;DHT22;10375;49.136;10.366;2022-08-19T06:52:54;19.80;99.90
20432;DHT22;10375;49.136;10.366;2022-08-19T06:55:21;19.90;99.90
20432;DHT22;10375;49.136;10.366;2022-08-19T06:57:49;19.90;99.90
20432;DHT22;10375;49.136;10.366;2022-08-19T07:00:20;19.90;99.90
20432;DHT22;10375;49.136;10.366;2022-08-19T07:02:47;19.90;99.90
20432;DHT22;10375;49.136;10.366;2022-08-19T07:05:24;20.00;99.90
20432;DHT22;10375;49.136;10.366;2022-08-19T07:07:51;20.00;99.90
20432;DHT22;10375;49.136;10.366;2022-08-19T07:10:24;20.00;99.90
20432;DHT22;10375;49.136;10.366;2022-08-19T07:12:52;20.10;99.90
20432;DHT22;10375;49.136;10.366;2022-08-19T07:15:19;20.10;99.90
20432;DHT22;10375;49.136;10.366;2022-08-19T07:17:48;20.20;99.90
20432;DHT22;10375;49.136;10.366;2022-08-19T07:20:18;20.20;99.90
20432;DHT22;10375;49.136;10.366;2022-08-19T07:22:46;20.30;99.90
20432;DHT22;10375;49.136;10.366;2022-08-19T07:25:14;20.30;99.90
20432;DHT22;10375;49.136;10.366;2022-08-19T07:27:43;20.40;99.90
20432;DHT22;10375;49.136;10.366;2022-08-19T07:30:20;20.40;99.90
20432;DHT22;10375;49.136;10.366;2022-08-19T07:32:52;20.40;99.90
20432;DHT22;10375;49.136;10.366;2022-08-19T07:35:19;20.40;99.90
20432;DHT22;10375;49.136;10.366;2022-08-19T07:37:47;20.30;99.90
20432;DHT22;10375;49.136;10.366;2022-08-19T07:40:14;20.30;99.90
20432;DHT22;10375;49.136;10.366;2022-08-19T07:42:42;20.40;99.90
20432;DHT22;10375;49.136;10.366;2022-08-19T07:45:10;20.40;99.90
20432;DHT22;10375;49.136;10.366;2022-08-19T07:47:37;20.50;99.90
20432;DHT22;10375;49.136;10.366;2022-08-19T07:50:18;20.50;99.90
20432;DHT22;10375;49.136;10.366;2022-08-19T07:52:47;20.60;99.90
20432;DHT22;10375;49.136;10.366;2022-08-19T07:55:19;20.60;99.90
20432;DHT22;10375;49.136;10.366;2022-08-19T07:58:07;20.60;99.90
20432;DHT22;10375;49.136;10.366;2022-08-19T08:00:34;20.50;99.90
20432;DHT22;10375;49.136;10.366;2022-08-19T08:03:02;20.50;99.90
20432;DHT22;10375;49.136;10.366;2022-08-19T08:05:29;20.50;99.90
20432;DHT22;10375;49.136;10.366;2022-08-19T08:08:15;20.50;99.90
20432;DHT22;10375;49.136;10.366;2022-08-19T08:11:01;20.50;99.90
20432;DHT22;10375;49.136;10.366;2022-08-19T08:13:33;20.50;99.90
20432;DHT22;10375;49.136;10.366;2022-08-19T08:16:04;20.60;99.90
20432;DHT22;10375;49.136;10.366;2022-08-19T08:18:40;20.50;99.90
20432;DHT22;10375;49.136;10.366;2022-08-19T08:21:16;20.50;99.90
20432;DHT22;10375;49.136;10.366;2022-08-19T08:23:43;20.50;99.90
20432;DHT22;10375;49.136;10.366;2022-08-19T08:26:11;20.50;99.90
20432;DHT22;10375;49.136;10.366;2022-08-19T08:28:41;20.40;99.90
20432;DHT22;10375;49.136;10.366;2022-08-19T08:31:13;20.40;99.90
20432;DHT22;10375;49.136;10.366;2022-08-19T08:33:41;20.40;99.90
20432;DHT22;10375;49.136;10.366;2022-08-19T08:36:09;20.50;99.90
20432;DHT22;10375;49.136;10.366;2022-08-19T08:38:38;20.80;99.90
20432;DHT22;10375;49.136;10.366;2022-08-19T08:43:48;21.20;99.90
20432;DHT22;10375;49.136;10.366;2022-08-19T08:49:06;21.40;99.90
20432;DHT22;10375;49.136;10.366;2022-08-19T08:51:48;21.50;99.90
20432;DHT22;10375;49.136;10.366;2022-08-19T08:54:39;21.30;99.90
20432;DHT22;10375;49.136;10.366;2022-08-19T09:00:22;21.10;99.90
20432;DHT22;10375;49.136;10.366;2022-08-19T09:02:50;20.90;99.90
20432;DHT22;10375;49.136;10.366;2022-08-19T09:05:19;20.80;99.90
20432;DHT22;10375;49.136;10.366;2022-08-19T09:10:49;21.00;99.90
20432;DHT22;10375;49.136;10.366;2022-08-19T09:16:20;21.60;99.90
20432;DHT22;10375;49.136;10.366;2022-08-19T09:19:02;21.90;99.90
20432;DHT22;10375;49.136;10.366;2022-08-19T09:21:32;22.10;99.90
20432;DHT22;10375;49.136;10.366;2022-08-19T09:24:03;22.10;99.90
20432;DHT22;10375;49.136;10.366;2022-08-19T09:26:31;22.10;99.90
20432;DHT22;10375;49.136;10.366;2022-08-19T09:29:18;21.90;99.90
20432;DHT22;10375;49.136;10.366;2022-08-19T09:31:48;21.70;99.90
20432;DHT22;10375;49.136;10.366;2022-08-19T09:34:16;21.50;99.90
20432;DHT22;10375;49.136;10.366;2022-08-19T09:36:49;21.40;99.90
20432;DHT22;10375;49.136;10.366;2022-08-19T09:39:21;21.20;99.90
20432;DHT22;10375;49.136;10.366;2022-08-19T09:41:49;21.10;99.90
20432;DHT22;10375;49.136;10.366;2022-08-19T09:44:17;21.00;99.90
20432;DHT22;10375;49.136;10.366;2022-08-19T09:46:45;20.80;99.90
20432;DHT22;10375;49.136;10.366;2022-08-19T09:49:15;20.70;99.90
20432;DHT22;10375;49.136;10.366;2022-08-19T09:51:45;20.70;99.90
20432;DHT22;10375;49.136;10.366;2022-08-19T09:54:17;20.70;99.90
20432;DHT22;10375;49.136;10.366;2022-08-19T09:56:54;20.70;99.90
20432;DHT22;10375;49.136;10.366;2022-08-19T09:59:28;20.80;99.90
20432;DHT22;10375;49.136;10.366;2022-08-19T10:02:02;20.90;99.90
20432;DHT22;10375;49.136;10.366;2022-08-19T10:04:36;21.00;99.90
20432;DHT22;10375;49.136;10.366;2022-08-19T10:07:22;21.10;99.90
20432;DHT22;10375;49.136;10.366;2022-08-19T10:10:03;21.10;99.90
20432;DHT22;10375;49.136;10.366;2022-08-19T10:12:33;21.20;99.90
20432;DHT22;10375;49.136;10.366;2022-08-19T10:15:01;21.30;99.90
20432;DHT22;10375;49.136;10.366;2022-08-19T10:17:28;21.30;99.90
20432;DHT22;10375;49.136;10.366;2022-08-19T10:19:59;21.40;99.90
20432;DHT22;10375;49.136;10.366;2022-08-19T10:22:26;21.40;99.90
20432;DHT22;10375;49.136;10.366;2022-08-19T10:24:53;21.50;99.90
20432;DHT22;10375;49.136;10.366;2022-08-19T10:27:21;21.70;99.90
20432;DHT22;10375;49.136;10.366;2022-08-19T10:29:48;21.80;99.90
20432;DHT22;10375;49.136;10.366;2022-08-19T10:32:15;21.80;99.90
20432;DHT22;10375;49.136;10.366;2022-08-19T10:34:42;21.70;99.90
20432;DHT22;10375;49.136;10.366;2022-08-19T10:37:15;21.50;99.90
20432;DHT22;10375;49.136;10.366;2022-08-19T10:39:54;21.30;99.90
20432;DHT22;10375;49.136;10.366;2022-08-19T10:42:21;21.20;99.90
20432;DHT22;10375;49.136;10.366;2022-08-19T10:44:49;21.10;99.90
20432;DHT22;10375;49.136;10.366;2022-08-19T10:47:17;21.00;99.90
20432;DHT22;10375;49.136;10.366;2022-08-19T10:49:52;21.00;99.90
20432;DHT22;10375;49.136;10.366;2022-08-19T10:52:41;21.00;99.90
20432;DHT22;10375;49.136;10.366;2022-08-19T10:55:16;21.10;99.90
20432;DHT22;10375;49.136;10.366;2022-08-19T10:58:02;21.20;99.90
20432;DHT22;10375;49.136;10.366;2022-08-19T11:00:30;21.30;99.90
20432;DHT22;10375;49.136;10.366;2022-08-19T11:02:58;21.30;99.90
20432;DHT22;10375;49.136;10.366;2022-08-19T11:05:25;21.30;99.90
20432;DHT22;10375;49.136;10.366;2022-08-19T11:07:52;21.30;99.90
20432;DHT22;10375;49.136;10.366;2022-08-19T11:10:20;21.20;99.90
20432;DHT22;10375;49.136;10.366;2022-08-19T11:12:48;21.10;99.90
20432;DHT22;10375;49.136;10.366;2022-08-19T11:15:15;21.20;99.90
20432;DHT22;10375;49.136;10.366;2022-08-19T11:17:42;21.20;99.90
20432;DHT22;10375;49.136;10.366;2022-08-19T11:20:11;21.20;99.90
20432;DHT22;10375;49.136;10.366;2022-08-19T11:22:40;21.30;99.90
20432;DHT22;10375;49.136;10.366;2022-08-19T11:25:10;21.30;99.90
20432;DHT22;10375;49.136;10.366;2022-08-19T11:27:39;21.20;99.90
20432;DHT22;10375;49.136;10.366;2022-08-19T11:30:10;21.10;99.90
20432;DHT22;10375;49.136;10.366;2022-08-19T11:32:40;21.00;99.90
20432;DHT22;10375;49.136;10.366;2022-08-19T11:35:12;20.90;99.90
20432;DHT22;10375;49.136;10.366;2022-08-19T11:37:40;20.80;99.90
20432;DHT22;10375;49.136;10.366;2022-08-19T11:40:07;20.80;99.90
20432;DHT22;10375;49.136;10.366;2022-08-19T11:42:35;20.70;99.90
20432;DHT22;10375;49.136;10.366;2022-08-19T11:45:22;20.60;99.90
20432;DHT22;10375;49.136;10.366;2022-08-19T11:47:49;20.50;99.90
20432;DHT22;10375;49.136;10.366;2022-08-19T11:50:17;20.40;99.90
20432;DHT22;10375;49.136;10.366;2022-08-19T11:52:45;20.30;99.90
20432;DHT22;10375;49.136;10.366;2022-08-19T11:55:13;20.20;99.90
20432;DHT22;10375;49.136;10.366;2022-08-19T11:57:41;20.20;99.90
20432;DHT22;10375;49.136;10.366;2022-08-19T12:00:11;20.20;99.90
20432;DHT22;10375;49.136;10.366;2022-08-19T12:02:40;20.20;99.90
20432;DHT22;10375;49.136;10.366;2022-08-19T12:05:07;20.20;99.90
20432;DHT22;10375;49.136;10.366;2022-08-19T12:07:39;20.20;99.90
20432;DHT22;10375;49.136;10.366;2022-08-19T12:10:07;20.30;99.90
20432;DHT22;10375;49.136;10.366;2022-08-19T12:12:36;20.30;99.90
20432;DHT22;10375;49.136;10.366;2022-08-19T12:15:07;20.40;99.90
20432;DHT22;10375;49.136;10.366;2022-08-19T12:17:35;20.40;99.90
20432;DHT22;10375;49.136;10.366;2022-08-19T12:20:04;20.30;99.90
20432;DHT22;10375;49.136;10.366;2022-08-19T12:22:33;20.40;99.90
20432;DHT22;10375;49.136;10.366;2022-08-19T12:25:01;20.30;99.90
20432;DHT22;10375;49.136;10.366;2022-08-19T12:27:28;20.30;99.90
20432;DHT22;10375;49.136;10.366;2022-08-19T12:30:15;20.40;99.90
20432;DHT22;10375;49.136;10.366;2022-08-19T12:32:42;20.50;99.90
20432;DHT22;10375;49.136;10.366;2022-08-19T12:35:09;20.50;99.90
20432;DHT22;10375;49.136;10.366;2022-08-19T12:37:38;20.50;99.90
20432;DHT22;10375;49.136;10.366;2022-08-19T12:40:05;20.50;99.90
20432;DHT22;10375;49.136;10.366;2022-08-19T12:42:32;20.50;99.90
20432;DHT22;10375;49.136;10.366;2022-08-19T12:45:00;20.40;99.90
20432;DHT22;10375;49.136;10.366;2022-08-19T12:47:27;20.30;99.90
20432;DHT22;10375;49.136;10.366;2022-08-19T12:49:54;20.30;99.90
20432;DHT22;10375;49.136;10.366;2022-08-19T12:52:25;20.30;99.90
20432;DHT22;10375;49.136;10.366;2022-08-19T12:54:55;20.30;99.90
20432;DHT22;10375;49.136;10.366;2022-08-19T12:57:24;20.30;99.90
20432;DHT22;10375;49.136;10.366;2022-08-19T13:00:06;20.20;99.90
20432;DHT22;10375;49.136;10.366;2022-08-19T13:02:38;20.20;99.90
20432;DHT22;10375;49.136;10.366;2022-08-19T13:05:09;20.20;99.90
20432;DHT22;10375;49.136;10.366;2022-08-19T13:07:39;20.20;99.90
20432;DHT22;10375;49.136;10.366;2022-08-19T13:10:09;20.20;99.90
20432;DHT22;10375;49.136;10.366;2022-08-19T13:12:37;20.10;99.90
20432;DHT22;10375;49.136;10.366;2022-08-19T13:15:05;20.20;99.90
20432;DHT22;10375;49.136;10.366;2022-08-19T13:17:37;20.20;99.90
20432;DHT22;10375;49.136;10.366;2022-08-19T13:20:09;20.10;99.90
20432;DHT22;10375;49.136;10.366;2022-08-19T13:22:37;20.20;99.90
20432;DHT22;10375;49.136;10.366;2022-08-19T13:25:06;20.20;99.90
20432;DHT22;10375;49.136;10.366;2022-08-19T13:27:33;20.20;99.90
20432;DHT22;10375;49.136;10.366;2022-08-19T13:30:02;20.20;99.90
20432;DHT22;10375;49.136;10.366;2022-08-19T13:32:48;20.10;99.90
20432;DHT22;10375;49.136;10.366;2022-08-19T13:35:34;20.10;99.90
20432;DHT22;10375;49.136;10.366;2022-08-19T13:38:01;20.10;99.90
20432;DHT22;10375;49.136;10.366;2022-08-19T13:40:39;20.10;99.90
20432;DHT22;10375;49.136;10.366;2022-08-19T13:43:08;20.00;99.90
20432;DHT22;10375;49.136;10.366;2022-08-19T13:45:53;20.00;99.90
20432;DHT22;10375;49.136;10.366;2022-08-19T13:48:24;20.00;99.90
20432;DHT22;10375;49.136;10.366;2022-08-19T13:50:53;19.90;99.90
20432;DHT22;10375;49.136;10.366;2022-08-19T13:53:21;19.90;99.90
20432;DHT22;10375;49.136;10.366;2022-08-19T13:55:48;19.80;99.90
20432;DHT22;10375;49.136;10.366;2022-08-19T13:58:17;19.80;99.90
20432;DHT22;10375;49.136;10.366;2022-08-19T14:00:46;19.70;99.90
20432;DHT22;10375;49.136;10.366;2022-08-19T14:03:13;19.60;99.90
20432;DHT22;10375;49.136;10.366;2022-08-19T14:05:40;19.60;99.90
20432;DHT22;10375;49.136;10.366;2022-08-19T14:08:08;19.60;99.90
20432;DHT22;10375;49.136;10.366;2022-08-19T14:10:36;19.60;99.90
20432;DHT22;10375;49.136;10.366;2022-08-19T14:13:03;19.60;99.90
20432;DHT22;10375;49.136;10.366;2022-08-19T14:15:31;19.60;99.90
20432;DHT22;10375;49.136;10.366;2022-08-19T14:17:58;19.60;99.90
20432;DHT22;10375;49.136;10.366;2022-08-19T14:20:26;19.60;99.90
20432;DHT22;10375;49.136;10.366;2022-08-19T14:22:53;19.70;99.90
20432;DHT22;10375;49.136;10.366;2022-08-19T14:25:25;19.60;99.90
20432;DHT22;10375;49.136;10.366;2022-08-19T14:27:53;19.60;99.90
20432;DHT22;10375;49.136;10.366;2022-08-19T14:30:32;19.60;99.90
20432;DHT22;10375;49.136;10.366;2022-08-19T14:33:01;19.60;99.90
20432;DHT22;10375;49.136;10.366;2022-08-19T14:35:29;19.50;99.90
20432;DHT22;10375;49.136;10.366;2022-08-19T14:38:02;19.50;99.90
20432;DHT22;10375;49.136;10.366;2022-08-19T14:40:30;19.50;99.90
20432;DHT22;10375;49.136;10.366;2022-08-19T14:43:00;19.50;99.90
20432;DHT22;10375;49.136;10.366;2022-08-19T14:45:33;19.50;99.90
20432;DHT22;10375;49.136;10.366;2022-08-19T14:48:03;19.50;99.90
20432;DHT22;10375;49.136;10.366;2022-08-19T14:50:31;19.50;99.90
20432;DHT22;10375;49.136;10.366;2022-08-19T14:53:04;19.50;99.90
20432;DHT22;10375;49.136;10.366;2022-08-19T14:55:42;19.50;99.90
20432;DHT22;10375;49.136;10.366;2022-08-19T14:58:09;19.50;99.90
20432;DHT22;10375;49.136;10.366;2022-08-19T15:00:57;19.40;99.90
20432;DHT22;10375;49.136;10.366;2022-08-19T15:03:24;19.40;99.90
20432;DHT22;10375;49.136;10.366;2022-08-19T15:05:51;19.40;99.90
20432;DHT22;10375;49.136;10.366;2022-08-19T15:08:18;19.30;99.90
20432;DHT22;10375;49.136;10.366;2022-08-19T15:10:45;19.30;99.90
20432;DHT22;10375;49.136;10.366;2022-08-19T15:13:13;19.30;99.90
20432;DHT22;10375;49.136;10.366;2022-08-19T15:15:40;19.30;99.90
20432;DHT22;10375;49.136;10.366;2022-08-19T15:18:07;19.20;99.90
20432;DHT22;10375;49.136;10.366;2022-08-19T15:20:35;19.20;99.90
20432;DHT22;10375;49.136;10.366;2022-08-19T15:23:02;19.20;99.90
20432;DHT22;10375;49.136;10.366;2022-08-19T15:25:30;19.20;99.90
20432;DHT22;10375;49.136;10.366;2022-08-19T15:27:57;19.10;99.90
20432;DHT22;10375;49.136;10.366;2022-08-19T15:30:26;19.10;99.90
20432;DHT22;10375;49.136;10.366;2022-08-19T15:32:56;19.10;99.90
20432;DHT22;10375;49.136;10.366;2022-08-19T15:35:24;19.00;99.90
20432;DHT22;10375;49.136;10.366;2022-08-19T15:37:52;19.00;99.90
20432;DHT22;10375;49.136;10.366;2022-08-19T15:40:24;19.00;99.90
20432;DHT22;10375;49.136;10.366;2022-08-19T15:42:56;19.00;99.90
20432;DHT22;10375;49.136;10.366;2022-08-19T15:45:24;19.00;99.90
20432;DHT22;10375;49.136;10.366;2022-08-19T15:47:59;19.00;99.90
20432;DHT22;10375;49.136;10.366;2022-08-19T15:50:26;19.00;99.90